createdAt,value
2018-09-09T00:00:59.174Z,94.21
2018-09-09T00:01:58.593Z,94.12
2018-09-09T00:02:58.606Z,94.21
2018-09-09T00:03:58.587Z,93.16
2018-09-09T00:04:58.598Z,93.45
2018-09-09T00:05:58.612Z,93.64
2018-09-09T00:06:58.608Z,93.83
2018-09-09T00:07:58.632Z,93.54
2018-09-09T00:08:58.619Z,93.35
2018-09-09T00:09:58.594Z,94.31
2018-09-09T00:10:58.606Z,94.79
2018-09-09T00:11:58.615Z,94.60
2018-09-09T00:12:58.611Z,93.45
2018-09-09T00:13:58.621Z,94.21
2018-09-09T00:14:58.616Z,94.69
2018-09-09T00:15:59.182Z,92.49
2018-09-09T00:16:58.633Z,93.54
2018-09-09T00:17:58.624Z,93.54
2018-09-09T00:18:58.620Z,94.12
2018-09-09T00:19:58.675Z,92.40
2018-09-09T00:20:58.649Z,93.74
2018-09-09T00:21:58.657Z,93.93
2018-09-09T00:22:58.639Z,92.49
2018-09-09T00:23:58.671Z,91.53
2018-09-09T00:24:58.653Z,90.67
2018-09-09T00:25:58.651Z,91.34
2018-09-09T00:26:58.660Z,91.44
2018-09-09T00:27:58.644Z,90.77
2018-09-09T00:28:59.189Z,90.96
2018-09-09T00:29:58.671Z,90.96
2018-09-09T00:30:58.661Z,91.72
2018-09-09T00:31:58.651Z,92.78
2018-09-09T00:32:58.672Z,92.49
2018-09-09T00:33:58.686Z,93.45
2018-09-09T00:34:58.668Z,93.07
2018-09-09T00:35:58.666Z,93.26
2018-09-09T00:36:58.706Z,93.74
2018-09-09T00:37:58.670Z,92.30
2018-09-09T00:38:58.709Z,91.34
2018-09-09T00:39:58.695Z,93.26
2018-09-09T00:40:58.705Z,91.92
2018-09-09T00:41:59.689Z,91.72
2018-09-09T00:42:58.666Z,92.58
2018-09-09T00:43:58.753Z,92.01
2018-09-09T00:44:58.741Z,92.40
2018-09-09T00:45:58.733Z,93.45
2018-09-09T00:46:58.691Z,91.34
2018-09-09T00:47:58.695Z,91.25
2018-09-09T00:48:58.753Z,90.00
2018-09-09T00:49:58.692Z,88.13
2018-09-09T00:50:58.785Z,86.55
2018-09-09T00:51:58.721Z,86.36
2018-09-09T00:52:58.746Z,86.08
2018-09-09T00:53:58.701Z,86.94
2018-09-09T00:54:58.806Z,86.99
2018-09-09T00:55:58.741Z,86.13
2018-09-09T00:56:58.737Z,86.32
2018-09-09T00:57:58.776Z,85.84
2018-09-09T00:58:58.733Z,85.08
2018-09-09T00:59:58.735Z,83.68
2018-09-09T01:00:58.734Z,83.06
2018-09-09T01:01:58.762Z,82.53
2018-09-09T01:02:58.721Z,82.82
2018-09-09T01:03:58.751Z,80.71
2018-09-09T01:04:58.751Z,80.29
2018-09-09T01:05:58.890Z,84.35
2018-09-09T01:06:58.719Z,85.21
2018-09-09T01:07:58.756Z,86.36
2018-09-09T01:08:58.759Z,87.03
2018-09-09T01:09:58.718Z,87.80
2018-09-09T01:10:58.733Z,87.80
2018-09-09T01:11:58.735Z,86.55
2018-09-09T01:12:58.838Z,86.46
2018-09-09T01:13:58.742Z,87.03
2018-09-09T01:14:58.792Z,87.51
2018-09-09T01:15:58.754Z,84.06
2018-09-09T01:16:58.762Z,85.50
2018-09-09T01:17:58.749Z,85.50
2018-09-09T01:18:58.766Z,84.16
2018-09-09T01:19:58.779Z,84.55
2018-09-09T01:20:58.833Z,85.31
2018-09-09T01:21:58.805Z,85.79
2018-09-09T01:22:58.840Z,84.92
2018-09-09T01:23:58.798Z,84.35
2018-09-09T01:24:58.770Z,83.97
2018-09-09T01:25:58.777Z,85.02
2018-09-09T01:26:58.786Z,85.98
2018-09-09T01:27:58.787Z,85.75
2018-09-09T01:28:58.773Z,84.35
2018-09-09T01:29:58.810Z,86.55
2018-09-09T01:30:58.806Z,85.41
2018-09-09T01:31:58.836Z,86.55
2018-09-09T01:32:58.808Z,84.74
2018-09-09T01:33:58.830Z,85.88
2018-09-09T01:34:58.852Z,85.50
2018-09-09T01:35:58.791Z,86.94
2018-09-09T01:36:58.794Z,88.66
2018-09-09T01:37:58.813Z,89.90
2018-09-09T01:38:58.801Z,91.63
2018-09-09T01:39:58.799Z,92.01
2018-09-09T01:40:58.821Z,92.30
2018-09-09T01:41:58.798Z,92.58
2018-09-09T01:42:58.813Z,91.15
2018-09-09T01:43:58.810Z,90.48
2018-09-09T01:44:58.820Z,90.77
2018-09-09T01:45:58.814Z,90.58
2018-09-09T01:46:58.839Z,91.34
2018-09-09T01:47:58.850Z,91.92
2018-09-09T01:48:58.908Z,91.63
2018-09-09T01:49:58.846Z,89.90
2018-09-09T01:50:58.842Z,88.18
2018-09-09T01:51:58.868Z,90.86
2018-09-09T01:52:58.828Z,88.09
2018-09-09T01:53:58.828Z,90.09
2018-09-09T01:54:59.711Z,89.90
2018-09-09T01:55:58.866Z,91.63
2018-09-09T01:56:58.859Z,91.34
2018-09-09T01:57:58.863Z,91.44
2018-09-09T01:58:58.856Z,91.53
2018-09-09T01:59:58.851Z,91.34
2018-09-09T02:00:58.888Z,93.35
2018-09-09T02:01:58.846Z,93.93
2018-09-09T02:02:58.865Z,94.40
2018-09-09T02:03:58.847Z,94.69
2018-09-09T02:04:58.902Z,94.60
2018-09-09T02:05:58.856Z,95.84
2018-09-09T02:06:58.861Z,94.60
2018-09-09T02:07:58.865Z,95.56
2018-09-09T02:08:58.880Z,95.27
2018-09-09T02:09:58.911Z,94.60
2018-09-09T02:10:58.885Z,94.79
2018-09-09T02:11:58.855Z,94.60
2018-09-09T02:12:58.887Z,95.36
2018-09-09T02:13:58.874Z,95.36
2018-09-09T02:14:58.913Z,92.78
2018-09-09T02:15:58.873Z,93.16
2018-09-09T02:16:58.911Z,94.50
2018-09-09T02:17:58.897Z,92.01
2018-09-09T02:18:58.894Z,90.77
2018-09-09T02:19:58.913Z,91.92
2018-09-09T02:20:58.907Z,90.58
2018-09-09T02:21:58.922Z,91.34
2018-09-09T02:22:58.886Z,92.87
2018-09-09T02:23:58.910Z,91.92
2018-09-09T02:24:58.897Z,93.16
2018-09-09T02:25:58.970Z,93.35
2018-09-09T02:26:58.901Z,93.64
2018-09-09T02:27:58.924Z,92.49
2018-09-09T02:28:58.927Z,93.26
2018-09-09T02:29:59.001Z,93.64
2018-09-09T02:30:58.914Z,89.14
2018-09-09T02:31:58.909Z,90.58
2018-09-09T02:32:58.911Z,93.35
2018-09-09T02:33:58.909Z,93.45
2018-09-09T02:34:58.921Z,93.35
2018-09-09T02:35:58.916Z,90.67
2018-09-09T02:36:58.927Z,92.40
2018-09-09T02:37:58.928Z,93.64
2018-09-09T02:38:58.924Z,92.58
2018-09-09T02:39:58.929Z,89.72
2018-09-09T02:40:58.969Z,92.40
2018-09-09T02:41:58.984Z,93.26
2018-09-09T02:42:58.971Z,93.26
2018-09-09T02:43:58.976Z,93.45
2018-09-09T02:44:58.958Z,92.01
2018-09-09T02:45:58.944Z,91.72
2018-09-09T02:46:58.949Z,90.67
2018-09-09T02:47:58.999Z,89.04
2018-09-09T02:48:58.967Z,91.05
2018-09-09T02:49:58.942Z,90.86
2018-09-09T02:50:58.956Z,91.44
2018-09-09T02:51:58.963Z,93.26
2018-09-09T02:52:58.959Z,93.45
2018-09-09T02:53:58.973Z,93.35
2018-09-09T02:55:01.821Z,93.07
2018-09-09T02:55:58.968Z,93.26
2018-09-09T02:56:58.970Z,91.72
2018-09-09T02:57:58.979Z,92.40
2018-09-09T02:58:58.983Z,92.58
2018-09-09T02:59:59.020Z,89.04
2018-09-09T03:00:58.996Z,88.18
2018-09-09T03:01:58.992Z,88.85
2018-09-09T03:02:59.016Z,90.09
2018-09-09T03:03:59.023Z,89.14
2018-09-09T03:04:59.000Z,87.99
2018-09-09T03:05:58.980Z,89.48
2018-09-09T03:06:59.017Z,90.58
2018-09-09T03:07:59.012Z,90.09
2018-09-09T03:08:58.980Z,89.81
2018-09-09T03:09:59.030Z,88.76
2018-09-09T03:10:59.737Z,89.62
2018-09-09T03:11:58.991Z,88.09
2018-09-09T03:12:58.994Z,88.37
2018-09-09T03:13:59.012Z,89.81
2018-09-09T03:14:58.999Z,89.52
2018-09-09T03:15:59.003Z,88.95
2018-09-09T03:16:59.035Z,88.47
2018-09-09T03:17:59.004Z,90.48
2018-09-09T03:18:59.032Z,90.77
2018-09-09T03:19:59.094Z,90.39
2018-09-09T03:20:59.036Z,88.76
2018-09-09T03:21:59.155Z,89.04
2018-09-09T03:22:59.040Z,89.33
2018-09-09T03:23:59.046Z,89.90
2018-09-09T03:24:59.034Z,89.14
2018-09-09T03:25:59.033Z,88.09
2018-09-09T03:26:59.040Z,87.13
2018-09-09T03:27:59.039Z,86.46
2018-09-09T03:28:59.076Z,86.55
2018-09-09T03:29:59.017Z,86.65
2018-09-09T03:30:59.131Z,87.23
2018-09-09T03:31:59.045Z,87.13
2018-09-09T03:32:59.070Z,90.96
2018-09-09T03:33:59.084Z,91.82
2018-09-09T03:34:59.060Z,92.21
2018-09-09T03:35:59.051Z,93.26
2018-09-09T03:36:59.065Z,92.78
2018-09-09T03:37:59.058Z,93.26
2018-09-09T03:38:59.058Z,91.34
2018-09-09T03:39:59.063Z,92.58
2018-09-09T03:40:59.101Z,92.01
2018-09-09T03:41:59.160Z,91.44
2018-09-09T03:42:59.079Z,91.72
2018-09-09T03:43:59.104Z,91.15
2018-09-09T03:44:59.113Z,92.30
2018-09-09T03:45:59.075Z,91.92
2018-09-09T03:46:59.104Z,91.34
2018-09-09T03:47:59.116Z,90.00
2018-09-09T03:48:59.122Z,90.09
2018-09-09T03:49:59.065Z,90.48
2018-09-09T03:50:59.083Z,90.19
2018-09-09T03:51:59.106Z,87.99
2018-09-09T03:52:59.137Z,89.72
2018-09-09T03:53:59.080Z,89.33
2018-09-09T03:54:59.101Z,89.33
2018-09-09T03:55:59.115Z,89.14
2018-09-09T03:56:59.089Z,89.14
2018-09-09T03:57:59.134Z,87.51
2018-09-09T03:58:59.190Z,88.85
2018-09-09T03:59:59.108Z,89.52
2018-09-09T04:00:59.190Z,91.05
2018-09-09T04:01:59.137Z,91.82
2018-09-09T04:02:59.118Z,90.86
2018-09-09T04:03:59.132Z,91.72
2018-09-09T04:04:59.117Z,89.14
2018-09-09T04:05:59.143Z,89.81
2018-09-09T04:06:59.162Z,90.86
2018-09-09T04:07:59.189Z,90.67
2018-09-09T04:08:59.170Z,90.58
2018-09-09T04:09:59.197Z,90.72
2018-09-09T04:10:59.162Z,90.29
2018-09-09T04:11:59.118Z,88.62
2018-09-09T04:12:59.117Z,89.29
2018-09-09T04:13:59.116Z,89.72
2018-09-09T04:14:59.124Z,90.29
2018-09-09T04:15:59.204Z,90.00
2018-09-09T04:16:59.128Z,89.43
2018-09-09T04:17:59.766Z,88.47
2018-09-09T04:18:59.140Z,88.56
2018-09-09T04:19:59.145Z,87.13
2018-09-09T04:20:59.160Z,86.94
2018-09-09T04:21:59.162Z,86.55
2018-09-09T04:22:59.167Z,84.74
2018-09-09T04:23:59.157Z,87.51
2018-09-09T04:24:59.158Z,85.36
2018-09-09T04:25:59.148Z,86.04
2018-09-09T04:26:59.210Z,85.41
2018-09-09T04:27:59.163Z,84.79
2018-09-09T04:28:59.174Z,84.35
2018-09-09T04:29:59.184Z,87.13
2018-09-09T04:30:59.276Z,86.84
2018-09-09T04:31:59.206Z,87.51
2018-09-09T04:32:59.162Z,88.95
2018-09-09T04:33:59.170Z,88.28
2018-09-09T04:34:59.177Z,90.39
2018-09-09T04:35:59.157Z,89.81
2018-09-09T04:36:59.172Z,90.00
2018-09-09T04:37:59.174Z,89.14
2018-09-09T04:38:59.168Z,88.33
2018-09-09T04:39:59.190Z,87.95
2018-09-09T04:40:59.173Z,87.85
2018-09-09T04:41:59.250Z,88.18
2018-09-09T04:42:59.217Z,88.95
2018-09-09T04:43:59.215Z,87.41
2018-09-09T04:44:59.218Z,87.99
2018-09-09T04:45:59.203Z,86.27
2018-09-09T04:46:59.207Z,86.27
2018-09-09T04:47:59.215Z,86.36
2018-09-09T04:48:59.247Z,85.98
2018-09-09T04:49:59.226Z,87.51
2018-09-09T04:50:59.215Z,86.08
2018-09-09T04:51:59.254Z,85.21
2018-09-09T04:52:59.202Z,86.13
2018-09-09T04:53:59.241Z,85.65
2018-09-09T04:54:59.214Z,85.98
2018-09-09T04:55:59.208Z,85.36
2018-09-09T04:56:59.217Z,84.79
2018-09-09T04:57:59.213Z,82.78
2018-09-09T04:58:59.222Z,83.16
2018-09-09T04:59:59.238Z,84.41
2018-09-09T05:00:59.222Z,82.20
2018-09-09T05:01:59.217Z,83.20
2018-09-09T05:02:59.229Z,84.31
2018-09-09T05:03:59.226Z,85.27
2018-09-09T05:04:59.243Z,84.88
2018-09-09T05:05:59.239Z,85.88
2018-09-09T05:06:59.220Z,84.74
2018-09-09T05:07:59.250Z,83.39
2018-09-09T05:08:59.229Z,83.59
2018-09-09T05:09:59.239Z,82.92
2018-09-09T05:10:59.249Z,83.01
2018-09-09T05:11:59.331Z,82.63
2018-09-09T05:12:59.234Z,82.82
2018-09-09T05:13:59.234Z,82.87
2018-09-09T05:14:59.269Z,83.68
2018-09-09T05:15:59.246Z,82.43
2018-09-09T05:16:59.245Z,82.43
2018-09-09T05:17:59.251Z,83.97
2018-09-09T05:18:59.267Z,83.78
2018-09-09T05:19:59.259Z,84.55
2018-09-09T05:20:59.269Z,85.12
2018-09-09T05:21:59.263Z,84.83
2018-09-09T05:22:59.280Z,86.27
2018-09-09T05:23:59.280Z,86.17
2018-09-09T05:24:59.276Z,84.16
2018-09-09T05:25:59.278Z,83.11
2018-09-09T05:26:59.295Z,84.35
2018-09-09T05:27:59.298Z,85.69
2018-09-09T05:28:59.285Z,87.13
2018-09-09T05:29:59.787Z,87.90
2018-09-09T05:30:59.333Z,88.37
2018-09-09T05:31:59.472Z,87.32
2018-09-09T05:32:59.329Z,87.99
2018-09-09T05:33:59.294Z,88.09
2018-09-09T05:34:59.306Z,87.99
2018-09-09T05:35:59.342Z,88.09
2018-09-09T05:36:59.296Z,88.09
2018-09-09T05:37:59.302Z,88.76
2018-09-09T05:38:59.318Z,90.96
2018-09-09T05:39:59.305Z,92.11
2018-09-09T05:40:59.337Z,92.21
2018-09-09T05:41:59.355Z,91.53
2018-09-09T05:42:59.314Z,92.01
2018-09-09T05:43:59.329Z,91.44
2018-09-09T05:44:59.344Z,92.30
2018-09-09T05:45:59.323Z,93.21
2018-09-09T05:46:59.354Z,91.77
2018-09-09T05:47:59.336Z,91.67
2018-09-09T05:48:59.352Z,92.44
2018-09-09T05:49:59.378Z,91.96
2018-09-09T05:50:59.340Z,92.63
2018-09-09T05:51:59.328Z,93.59
2018-09-09T05:52:59.321Z,93.30
2018-09-09T05:53:59.377Z,94.74
2018-09-09T05:54:59.334Z,95.41
2018-09-09T05:55:59.326Z,94.74
2018-09-09T05:56:59.347Z,93.40
2018-09-09T05:57:59.338Z,96.75
2018-09-09T05:58:59.331Z,96.66
2018-09-09T05:59:59.344Z,96.84
2018-09-09T06:00:59.338Z,97.04
2018-09-09T06:01:59.346Z,96.70
2018-09-09T06:02:59.339Z,97.18
2018-09-09T06:03:59.349Z,98.10
2018-09-09T06:04:59.349Z,97.14
2018-09-09T06:05:59.342Z,97.61
2018-09-09T06:06:59.419Z,97.95
2018-09-09T06:07:59.352Z,98.24
2018-09-09T06:08:59.401Z,98.72
2018-09-09T06:09:59.356Z,98.81
2018-09-09T06:10:59.388Z,98.81
2018-09-09T06:11:59.363Z,99.19
2018-09-09T06:12:59.394Z,99.19
2018-09-09T06:13:59.388Z,99.99
2018-09-09T06:14:59.363Z,99.99
2018-09-09T06:15:59.388Z,99.99
2018-09-09T06:16:59.393Z,99.99
2018-09-09T06:17:59.410Z,99.99
2018-09-09T06:18:59.386Z,99.99
2018-09-09T06:19:59.424Z,99.99
2018-09-09T06:20:59.433Z,99.99
2018-09-09T06:21:59.414Z,99.99
2018-09-09T06:22:59.412Z,99.99
2018-09-09T06:24:00.313Z,99.99
2018-09-09T06:24:59.396Z,99.99
2018-09-09T06:25:59.428Z,99.99
2018-09-09T06:26:59.409Z,99.99
2018-09-09T06:27:59.402Z,99.99
2018-09-09T06:28:59.422Z,99.99
2018-09-09T06:29:59.431Z,99.99
2018-09-09T06:30:59.414Z,99.99
2018-09-09T06:31:59.405Z,99.99
2018-09-09T06:32:59.430Z,99.99
2018-09-09T06:33:59.470Z,99.99
2018-09-09T06:34:59.420Z,99.99
2018-09-09T06:35:59.428Z,99.99
2018-09-09T06:36:59.709Z,99.99
2018-09-09T06:37:59.440Z,99.99
2018-09-09T06:38:59.448Z,99.99
2018-09-09T06:39:59.464Z,99.99
2018-09-09T06:41:00.323Z,99.99
2018-09-09T06:41:59.459Z,99.99
2018-09-09T06:42:59.460Z,99.99
2018-09-09T06:43:59.474Z,99.99
2018-09-09T06:44:59.454Z,99.99
2018-09-09T06:45:59.448Z,99.99
2018-09-09T06:46:59.448Z,99.99
2018-09-09T06:47:59.501Z,99.99
2018-09-09T06:48:59.463Z,99.99
2018-09-09T06:49:59.581Z,99.99
2018-09-09T06:50:59.465Z,99.99
2018-09-09T06:51:59.476Z,99.99
2018-09-09T06:52:59.472Z,99.99
2018-09-09T06:53:59.458Z,99.99
2018-09-09T06:54:59.497Z,99.99
2018-09-09T06:55:59.491Z,99.99
2018-09-09T06:56:59.501Z,99.99
2018-09-09T06:57:59.486Z,99.99
2018-09-09T06:58:59.475Z,99.99
2018-09-09T06:59:59.466Z,99.50
2018-09-09T07:00:59.486Z,96.56
2018-09-09T07:01:59.484Z,95.74
2018-09-09T07:02:59.488Z,98.00
2018-09-09T07:03:59.494Z,99.21
2018-09-09T07:04:59.544Z,99.99
2018-09-09T07:05:59.495Z,99.99
2018-09-09T07:06:59.498Z,97.62
2018-09-09T07:07:59.508Z,92.83
2018-09-09T07:08:59.528Z,91.01
2018-09-09T07:09:59.536Z,89.84
2018-09-09T07:10:59.640Z,87.23
2018-09-09T07:11:59.593Z,87.04
2018-09-09T07:12:59.534Z,86.94
2018-09-09T07:13:59.499Z,86.41
2018-09-09T07:14:59.521Z,86.07
2018-09-09T07:15:59.511Z,88.54
2018-09-09T07:16:59.623Z,90.23
2018-09-09T07:17:59.511Z,90.29
2018-09-09T07:18:59.545Z,90.87
2018-09-09T07:19:59.549Z,92.02
2018-09-09T07:20:59.626Z,90.81
2018-09-09T07:21:59.556Z,90.77
2018-09-09T07:22:59.540Z,88.97
2018-09-09T07:23:59.548Z,88.49
2018-09-09T07:24:59.571Z,88.06
2018-09-09T07:25:59.569Z,89.61
2018-09-09T07:26:59.572Z,88.98
2018-09-09T07:27:59.562Z,90.05
2018-09-09T07:28:59.590Z,90.43
2018-09-09T07:29:59.584Z,90.43
2018-09-09T07:30:59.648Z,90.23
2018-09-09T07:31:59.616Z,90.77
2018-09-09T07:32:59.624Z,91.11
2018-09-09T07:33:59.604Z,94.10
2018-09-09T07:34:59.607Z,95.11
2018-09-09T07:35:59.602Z,95.16
2018-09-09T07:36:59.632Z,94.20
2018-09-09T07:37:59.597Z,94.29
2018-09-09T07:38:59.629Z,94.06
2018-09-09T07:39:59.647Z,95.02
2018-09-09T07:40:59.613Z,96.27
2018-09-09T07:41:59.618Z,96.27
2018-09-09T07:42:59.640Z,97.62
2018-09-09T07:43:59.665Z,97.24
2018-09-09T07:44:59.668Z,98.54
2018-09-09T07:45:59.638Z,98.24
2018-09-09T07:46:59.643Z,99.44
2018-09-09T07:47:59.698Z,99.99
2018-09-09T07:48:59.646Z,99.99
2018-09-09T07:49:59.674Z,99.99
2018-09-09T07:50:59.657Z,99.99
2018-09-09T07:51:59.657Z,99.99
2018-09-09T07:52:59.756Z,99.99
2018-09-09T07:53:59.704Z,99.99
2018-09-09T07:54:59.771Z,99.99
2018-09-09T07:55:59.675Z,99.99
2018-09-09T07:56:59.690Z,99.99
2018-09-09T07:57:59.695Z,99.99
2018-09-09T07:58:59.720Z,99.99
2018-09-09T07:59:59.702Z,99.99
2018-09-09T08:00:59.685Z,99.99
2018-09-09T08:01:59.708Z,99.99
2018-09-09T08:02:59.704Z,99.99
2018-09-09T08:03:59.709Z,99.99
2018-09-09T08:04:59.722Z,99.99
2018-09-09T08:05:59.723Z,99.99
2018-09-09T08:06:59.736Z,99.99
2018-09-09T08:07:59.770Z,99.99
2018-09-09T08:08:59.741Z,99.99
2018-09-09T08:09:59.717Z,99.99
2018-09-09T08:10:59.766Z,99.99
2018-09-09T08:11:59.908Z,99.99
2018-09-09T08:12:59.784Z,99.99
2018-09-09T08:13:59.778Z,99.99
2018-09-09T08:14:59.791Z,99.99
2018-09-09T08:15:59.738Z,99.99
2018-09-09T08:16:59.730Z,99.99
2018-09-09T08:17:59.743Z,99.99
2018-09-09T08:18:59.767Z,99.99
2018-09-09T08:19:59.754Z,99.99
2018-09-09T08:20:59.751Z,99.99
2018-09-09T08:21:59.777Z,99.99
2018-09-09T08:22:59.760Z,99.99
2018-09-09T08:23:59.775Z,99.99
2018-09-09T08:24:59.773Z,99.99
2018-09-09T08:25:59.808Z,99.99
2018-09-09T08:26:59.801Z,99.99
2018-09-09T08:27:59.796Z,99.99
2018-09-09T08:28:59.800Z,99.99
2018-09-09T08:29:59.865Z,99.99
2018-09-09T08:30:59.826Z,99.99
2018-09-09T08:31:59.817Z,99.99
2018-09-09T08:32:59.803Z,99.99
2018-09-09T08:33:59.869Z,99.99
2018-09-09T08:34:59.806Z,99.99
2018-09-09T08:35:59.797Z,99.99
2018-09-09T08:36:59.790Z,99.99
2018-09-09T08:37:59.890Z,99.99
2018-09-09T08:38:59.822Z,99.40
2018-09-09T08:39:59.831Z,98.72
2018-09-09T08:40:59.814Z,99.93
2018-09-09T08:41:59.858Z,98.34
2018-09-09T08:42:59.876Z,95.36
2018-09-09T08:43:59.821Z,94.43
2018-09-09T08:44:59.829Z,93.90
2018-09-09T08:45:59.871Z,90.81
2018-09-09T08:46:59.865Z,91.73
2018-09-09T08:47:59.877Z,88.64
2018-09-09T08:48:59.855Z,88.06
2018-09-09T08:49:59.839Z,89.75
2018-09-09T08:50:59.859Z,88.35
2018-09-09T08:51:59.921Z,88.83
2018-09-09T08:52:59.873Z,88.02
2018-09-09T08:53:59.896Z,88.64
2018-09-09T08:54:59.876Z,88.78
2018-09-09T08:55:59.910Z,86.51
2018-09-09T08:56:59.887Z,87.91
2018-09-09T08:57:59.933Z,85.25
2018-09-09T08:58:59.912Z,85.39
2018-09-09T08:59:59.929Z,83.20
2018-09-09T09:00:59.935Z,82.43
2018-09-09T09:01:59.934Z,81.37
2018-09-09T09:02:59.925Z,80.73
2018-09-09T09:03:59.939Z,82.04
2018-09-09T09:04:59.979Z,81.52
2018-09-09T09:05:59.956Z,83.36
2018-09-09T09:07:00.012Z,82.72
2018-09-09T09:08:00.493Z,81.37
2018-09-09T09:08:59.929Z,81.07
2018-09-09T09:10:00.888Z,82.20
2018-09-09T09:10:59.952Z,80.46
2018-09-09T09:11:59.961Z,81.42
2018-09-09T09:12:59.952Z,80.99
2018-09-09T09:13:59.966Z,80.90
2018-09-09T09:14:59.978Z,82.25
2018-09-09T09:15:59.986Z,82.73
2018-09-09T09:17:00.071Z,82.15
2018-09-09T09:18:00.021Z,81.04
2018-09-09T09:19:00.009Z,81.87
2018-09-09T09:20:00.046Z,81.81
2018-09-09T09:21:00.008Z,81.62
2018-09-09T09:22:00.057Z,81.75
2018-09-09T09:23:00.026Z,79.24
2018-09-09T09:24:00.045Z,79.20
2018-09-09T09:25:00.047Z,80.20
2018-09-09T09:26:00.065Z,79.41
2018-09-09T09:27:00.054Z,76.83
2018-09-09T09:28:00.095Z,74.39
2018-09-09T09:29:00.160Z,70.64
2018-09-09T09:30:00.078Z,71.42
2018-09-09T09:31:00.102Z,73.13
2018-09-09T09:32:00.065Z,73.28
2018-09-09T09:33:00.131Z,73.71
2018-09-09T09:34:00.096Z,73.58
2018-09-09T09:35:00.190Z,74.99
2018-09-09T09:36:00.270Z,75.54
2018-09-09T09:37:00.117Z,77.09
2018-09-09T09:38:00.136Z,77.47
2018-09-09T09:39:00.148Z,75.15
2018-09-09T09:40:00.168Z,75.63
2018-09-09T09:41:00.149Z,75.77
2018-09-09T09:42:00.198Z,75.34
2018-09-09T09:43:00.168Z,75.95
2018-09-09T09:44:00.204Z,77.88
2018-09-09T09:45:00.274Z,77.94
2018-09-09T09:46:00.223Z,77.94
2018-09-09T09:47:00.266Z,78.52
2018-09-09T09:48:00.214Z,78.66
2018-09-09T09:49:00.230Z,78.31
2018-09-09T09:50:00.235Z,77.92
2018-09-09T09:51:00.918Z,76.37
2018-09-09T09:52:00.263Z,77.73
2018-09-09T09:53:00.246Z,77.14
2018-09-09T09:54:00.317Z,78.69
2018-09-09T09:55:00.378Z,78.85
2018-09-09T09:56:00.316Z,79.04
2018-09-09T09:57:00.278Z,78.94
2018-09-09T09:58:00.283Z,78.94
2018-09-09T09:59:00.288Z,78.61
2018-09-09T10:00:00.327Z,78.66
2018-09-09T10:01:00.314Z,78.81
2018-09-09T10:02:00.302Z,78.61
2018-09-09T10:03:00.342Z,80.26
2018-09-09T10:04:00.439Z,80.55
2018-09-09T10:05:00.345Z,81.38
2018-09-09T10:06:00.359Z,81.87
2018-09-09T10:07:00.376Z,81.09
2018-09-09T10:08:00.395Z,81.53
2018-09-09T10:09:00.400Z,81.53
2018-09-09T10:10:00.382Z,83.33
2018-09-09T10:11:00.431Z,83.62
2018-09-09T10:12:00.394Z,83.62
2018-09-09T10:13:00.435Z,84.58
2018-09-09T10:14:00.533Z,84.05
2018-09-09T10:15:00.483Z,82.93
2018-09-09T10:16:00.927Z,83.64
2018-09-09T10:17:00.432Z,81.52
2018-09-09T10:18:00.419Z,79.78
2018-09-09T10:19:00.464Z,78.67
2018-09-09T10:20:00.452Z,79.74
2018-09-09T10:21:00.462Z,81.77
2018-09-09T10:22:00.465Z,83.26
2018-09-09T10:23:00.462Z,80.32
2018-09-09T10:24:00.481Z,80.59
2018-09-09T10:25:00.484Z,80.98
2018-09-09T10:26:00.514Z,79.27
2018-09-09T10:27:00.487Z,78.59
2018-09-09T10:28:00.486Z,79.57
2018-09-09T10:29:02.006Z,80.40
2018-09-09T10:30:00.588Z,80.20
2018-09-09T10:31:00.508Z,80.49
2018-09-09T10:32:00.534Z,79.32
2018-09-09T10:33:00.558Z,77.86
2018-09-09T10:34:00.562Z,77.45
2018-09-09T10:35:00.556Z,73.61
2018-09-09T10:36:00.551Z,72.64
2018-09-09T10:37:00.556Z,71.67
2018-09-09T10:38:00.585Z,71.22
2018-09-09T10:39:00.608Z,70.32
2018-09-09T10:40:00.598Z,69.77
2018-09-09T10:41:00.640Z,68.32
2018-09-09T10:42:00.652Z,69.35
2018-09-09T10:43:00.615Z,70.15
2018-09-09T10:44:00.623Z,70.31
2018-09-09T10:45:00.666Z,70.25
2018-09-09T10:46:00.697Z,69.35
2018-09-09T10:47:00.700Z,69.35
2018-09-09T10:48:00.702Z,67.73
2018-09-09T10:49:00.672Z,67.24
2018-09-09T10:50:00.703Z,67.11
2018-09-09T10:51:00.697Z,68.63
2018-09-09T10:52:01.453Z,69.32
2018-09-09T10:53:00.776Z,68.77
2018-09-09T10:54:00.741Z,68.60
2018-09-09T10:55:00.818Z,70.03
2018-09-09T10:56:00.821Z,71.28
2018-09-09T10:57:00.776Z,71.55
2018-09-09T10:58:00.799Z,68.80
2018-09-09T10:59:00.850Z,66.82
2018-09-09T11:00:00.815Z,67.34
2018-09-09T11:01:00.792Z,68.18
2018-09-09T11:02:00.795Z,69.34
2018-09-09T11:03:00.849Z,69.50
2018-09-09T11:04:00.827Z,70.57
2018-09-09T11:05:00.882Z,70.28
2018-09-09T11:06:00.886Z,69.99
2018-09-09T11:07:00.900Z,70.83
2018-09-09T11:08:00.874Z,70.98
2018-09-09T11:09:00.866Z,72.63
2018-09-09T11:10:00.943Z,72.09
2018-09-09T11:11:00.902Z,72.96
2018-09-09T11:12:00.952Z,71.80
2018-09-09T11:13:01.052Z,71.44
2018-09-09T11:14:00.941Z,72.12
2018-09-09T11:15:01.008Z,71.99
2018-09-09T11:16:00.996Z,72.31
2018-09-09T11:17:01.064Z,70.09
2018-09-09T11:18:01.020Z,70.21
2018-09-09T11:19:00.990Z,71.22
2018-09-09T11:20:01.013Z,72.53
2018-09-09T11:21:01.036Z,74.63
2018-09-09T11:22:01.056Z,73.72
2018-09-09T11:23:01.041Z,74.01
2018-09-09T11:24:01.044Z,73.72
2018-09-09T11:25:01.106Z,73.14
2018-09-09T11:26:01.044Z,73.63
2018-09-09T11:27:01.085Z,74.59
2018-09-09T11:28:01.079Z,74.40
2018-09-09T11:29:01.098Z,73.37
2018-09-09T11:30:01.197Z,74.43
2018-09-09T11:31:01.118Z,74.73
2018-09-09T11:32:01.144Z,73.85
2018-09-09T11:33:01.120Z,74.43
2018-09-09T11:34:01.104Z,75.89
2018-09-09T11:35:01.141Z,75.92
2018-09-09T11:36:01.146Z,74.15
2018-09-09T11:37:01.135Z,73.18
2018-09-09T11:38:01.147Z,73.47
2018-09-09T11:39:01.159Z,73.27
2018-09-09T11:40:01.165Z,73.08
2018-09-09T11:41:01.158Z,74.69
2018-09-09T11:42:01.189Z,75.11
2018-09-09T11:43:01.217Z,74.49
2018-09-09T11:44:01.246Z,75.27
2018-09-09T11:45:01.196Z,75.02
2018-09-09T11:46:01.290Z,75.37
2018-09-09T11:47:01.203Z,75.07
2018-09-09T11:48:01.214Z,75.46
2018-09-09T11:49:01.284Z,75.56
2018-09-09T11:50:01.285Z,75.62
2018-09-09T11:51:01.286Z,76.53
2018-09-09T11:52:01.305Z,75.70
2018-09-09T11:53:01.328Z,74.73
2018-09-09T11:54:01.258Z,75.02
2018-09-09T11:55:01.305Z,77.86
2018-09-09T11:56:01.267Z,75.63
2018-09-09T11:57:01.274Z,75.92
2018-09-09T11:58:01.275Z,74.47
2018-09-09T11:59:01.276Z,74.35
2018-09-09T12:00:01.332Z,72.71
2018-09-09T12:01:01.345Z,71.80
2018-09-09T12:02:01.380Z,73.25
2018-09-09T12:03:01.320Z,74.51
2018-09-09T12:04:01.336Z,72.67
2018-09-09T12:05:04.154Z,73.35
2018-09-09T12:06:01.345Z,73.44
2018-09-09T12:07:01.337Z,73.15
2018-09-09T12:08:01.343Z,73.99
2018-09-09T12:09:01.376Z,73.95
2018-09-09T12:10:01.437Z,74.18
2018-09-09T12:11:01.381Z,74.38
2018-09-09T12:12:01.359Z,75.83
2018-09-09T12:13:01.370Z,73.95
2018-09-09T12:14:01.418Z,73.85
2018-09-09T12:15:01.381Z,73.85
2018-09-09T12:16:01.440Z,74.82
2018-09-09T12:17:02.086Z,73.57
2018-09-09T12:18:01.399Z,74.15
2018-09-09T12:19:01.399Z,74.43
2018-09-09T12:20:02.015Z,74.43
2018-09-09T12:21:01.418Z,75.31
2018-09-09T12:22:01.461Z,74.73
2018-09-09T12:23:01.467Z,74.92
2018-09-09T12:24:01.471Z,75.92
2018-09-09T12:25:01.517Z,74.96
2018-09-09T12:26:01.454Z,74.47
2018-09-09T12:27:01.447Z,75.92
2018-09-09T12:28:01.494Z,75.89
2018-09-09T12:29:01.520Z,76.95
2018-09-09T12:30:01.523Z,76.28
2018-09-09T12:31:01.516Z,76.08
2018-09-09T12:32:01.498Z,75.75
2018-09-09T12:33:01.475Z,75.50
2018-09-09T12:34:01.481Z,74.92
2018-09-09T12:35:01.511Z,74.53
2018-09-09T12:36:01.630Z,75.21
2018-09-09T12:37:01.535Z,74.96
2018-09-09T12:38:01.528Z,74.47
2018-09-09T12:39:01.528Z,74.18
2018-09-09T12:40:01.545Z,73.41
2018-09-09T12:41:01.517Z,72.83
2018-09-09T12:42:01.533Z,74.66
2018-09-09T12:43:01.529Z,74.57
2018-09-09T12:44:01.577Z,73.57
2018-09-09T12:45:01.540Z,73.75
2018-09-09T12:46:01.600Z,73.95
2018-09-09T12:47:01.658Z,74.05
2018-09-09T12:48:01.688Z,74.49
2018-09-09T12:49:01.562Z,74.53
2018-09-09T12:50:01.588Z,73.95
2018-09-09T12:51:01.586Z,74.34
2018-09-09T12:52:01.638Z,74.01
2018-09-09T12:53:01.639Z,74.92